Austin, Texas
Current Conditions -  °F | °C
As of 6:51 AM on Friday 24 Oct 2014 (Local Time) from KATT Reporting Station
Few Clouds Few Clouds  
Wind Chill: 61°   Ceiling: Unl
Heat Index: 61°   Visibility: 10mi
Dew Point: 56°   Wind: 0mph
Humidity: 83%   Direction: NA
Pressure: 30.15"   Gusts: NA
Location:  30.27°N, 97.74°W
Report Text: KATT 241151Z AUTO 00000KT 10SM FEW065 16/13 A3015 RMK AO2 SLP201 T01610133 10189 20161 53005
Loading
Personal Weather Stations






























Interactive Weather Map
Tropical Storm Tracking
New forecast layout! Learn more

10-Day Weather Forecast

Advertisements
Track Severe Weather on mobile